METAR Data
IDs: Format: Raw Decoded Include TAF

Data at: 0021 UTC 30 May 2020

METAR for:KCKP (Cherokee Cnty, IA, US)
Text:KCKP 300015Z AUTO 34008KT 10SM CLR 21/07 A3016 RMK AO2 T02100066
Temperature: 21.0°C ( 70°F)
Dewpoint: 6.6°C ( 44°F) [RH = 39%]
Pressure (altimeter):30.16 inches Hg (1021.4 mb)
Winds:from the NNW (340 degrees) at 9 MPH (8 knots; 4.1 m/s)
Visibility:10 or more sm (16+ km)
Ceiling:at least 12,000 feet AGL
Clouds:sky clear below 12,000 feet AGL
QC Flag:automated observation with no human augmentation